Warren, Canada
Current Conditions -  °F | °C
As of 12:00 AM on Saturday 25 Oct 2014 (Local Time) from CYSB Reporting Station
Overcast Overcast  
Wind Chill: 43°   Ceiling: 1100
Heat Index: 46°   Visibility: 15mi
Dew Point: 45°   Wind: 7mph
Humidity: 93%   Direction: 240°WSW
Pressure: 29.82"   Gusts: NA
Location:  46.43°N, 80.3°W
Report Text: CYSB 250400Z 24006KT 15SM OVC011 08/07 A2982 RMK SC8 SLP106
Loading
Personal Weather Stations






























Interactive Weather Map
Tropical Storm Tracking
New forecast layout! Learn more

10-Day Weather Forecast

Advertisements
Track Severe Weather on mobile